Terminal Aerodrome Forecast
Issued by NWS Twin Cities, MN

Home | Current Version | Previous Version | Graphics & Text | Print | Product List | Glossary On
Versions: 1 2 3 4 5 6 7 8 9 10 11 12 13 14 15
000
FTUS43 KMPX 171100
TAFEAU
TAF
KEAU 171137Z 1712/1812 36008KT 5SM BR OVC020
     FM171300 34010KT P6SM OVC015
     FM171800 31009KT P6SM BKN025
     FM172200 31009KT P6SM SCT040
     FM180200 32004KT P6SM FEW250
     FM180800 VRB02KT P6SM SCT250=

USA.gov is the U.S. government's official web portal to all federal, state and local government web resources and services.